Time;durP1;ratioP1;P1;durP2;ratioP2;P2;SDS_P1;SDS_P2;PMS_P1;PMS_P2;Temp;Humidity;BMP_temperature;BMP_pressure;BME280_temperature;BME280_humidity;BME280_pressure;Samples;Min_cycle;Max_cycle;Signal;HPM_P1;HPM_P2
2023/09/29 00:01:18;;;;;;;8.68;2.63;;;;;;;;;;6269011;28;20918;-72
2023/09/29 00:04:21;;;;;;;7.50;2.47;;;;;;;;;;6291330;28;20055;-72
2023/09/29 00:07:24;;;;;;;7.03;3.13;;;;;;;;;;6239845;28;20436;-72
2023/09/29 00:10:26;;;;;;;7.13;3.63;;;;;;;;;;6302841;28;20092;-72
2023/09/29 00:13:28;;;;;;;6.03;4.68;;;;;;;;;;6248429;28;20062;-73
2023/09/29 00:16:30;;;;;;;5.80;2.40;;;;;;;;;;6307609;28;20051;-71
2023/09/29 00:19:33;;;;;;;7.50;6.43;;;;;;;;;;6288768;28;20035;-71
2023/09/29 00:22:35;;;;;;;10.15;3.15;;;;;;;;;;6300742;28;20040;-72
2023/09/29 00:25:37;;;;;;;6.90;5.03;;;;;;;;;;6269622;28;20028;-71
2023/09/29 00:28:39;;;;;;;5.05;3.22;;;;;;;;;;6279348;28;20121;-72
2023/09/29 00:31:41;;;;;;;8.98;3.60;;;;;;;;;;6279196;28;20035;-71
2023/09/29 00:34:43;;;;;;;9.25;2.80;;;;;;;;;;6268751;28;20057;-73
2023/09/29 00:37:45;;;;;;;7.40;5.97;;;;;;;;;;6298838;28;20103;-71
2023/09/29 00:40:47;;;;;;;12.52;3.75;;;;;;;;;;6259985;28;20047;-71
2023/09/29 00:43:50;;;;;;;5.78;3.25;;;;;;;;;;6298205;28;20043;-71
2023/09/29 00:46:52;;;;;;;8.00;5.32;;;;;;;;;;6233059;28;20117;-71
2023/09/29 00:49:54;;;;;;;10.68;4.15;;;;;;;;;;6262670;28;20046;-71
2023/09/29 00:52:59;;;;;;;7.55;4.47;;;;;;;;;;6292507;28;20039;-71
2023/09/29 00:56:02;;;;;;;;;;;;;;;;;;6291263;28;20032;-71
2023/09/29 00:59:06;;;;;;;6.13;5.53;;;;;;;;;;6290524;28;20062;-72
2023/09/29 01:02:10;;;;;;;8.73;3.60;;;;;;;;;;6287348;28;20061;-71
2023/09/29 01:05:12;;;;;;;7.22;3.15;;;;;;;;;;6303845;28;20437;-72
2023/09/29 01:08:26;;;;;;;6.57;3.92;;;;;;;;;;6246420;28;20096;-71
2023/09/29 01:11:28;;;;;;;6.43;2.75;;;;;;;;;;6281369;28;20188;-71
2023/09/29 01:14:32;;;;;;;9.25;6.22;;;;;;;;;;6261324;28;20043;-71
2023/09/29 01:17:35;;;;;;;7.60;5.03;;;;;;;;;;6291894;28;20137;-72
2023/09/29 01:20:40;;;;;;;9.13;5.50;;;;;;;;;;6270548;28;20190;-71
2023/09/29 01:23:44;;;;;;;5.65;3.83;;;;;;;;;;6270773;28;20867;-71
2023/09/29 01:26:46;;;;;;;11.32;4.45;;;;;;;;;;6316423;28;20820;-72
2023/09/29 01:29:49;;;;;;;11.95;7.68;;;;;;;;;;6276503;28;20157;-72
2023/09/29 01:32:53;;;;;;;8.85;2.85;;;;;;;;;;6262929;28;20050;-72
2023/09/29 01:35:55;;;;;;;9.68;4.28;;;;;;;;;;6304980;28;20070;-71
2023/09/29 01:38:59;;;;;;;7.57;3.88;;;;;;;;;;6284194;28;20054;-72
2023/09/29 01:42:01;;;;;;;8.38;3.17;;;;;;;;;;6315664;28;20055;-73
2023/09/29 01:45:08;;;;;;;8.60;5.82;;;;;;;;;;6273279;28;20172;-72
2023/09/29 01:48:11;;;;;;;8.18;5.50;;;;;;;;;;6262114;28;20044;-72
2023/09/29 01:51:14;;;;;;;12.07;5.78;;;;;;;;;;6280381;28;20058;-72
2023/09/29 01:54:16;;;;;;;8.38;6.00;;;;;;;;;;6244076;28;20756;-72
2023/09/29 01:57:18;;;;;;;7.82;3.28;;;;;;;;;;6275575;28;20138;-71
2023/09/29 02:00:20;;;;;;;7.78;5.00;;;;;;;;;;6283608;28;20057;-70
2023/09/29 02:03:23;;;;;;;9.85;6.68;;;;;;;;;;6247087;28;20050;-70
2023/09/29 02:06:27;;;;;;;6.07;5.47;;;;;;;;;;6288559;28;20045;-70
2023/09/29 02:09:29;;;;;;;10.25;4.47;;;;;;;;;;6236443;28;20049;-71
2023/09/29 02:12:31;;;;;;;7.07;5.60;;;;;;;;;;6256534;28;20122;-71
2023/09/29 02:15:35;;;;;;;13.93;5.53;;;;;;;;;;6278794;28;20054;-71
2023/09/29 02:18:37;;;;;;;7.25;4.78;;;;;;;;;;6289487;28;20518;-71
2023/09/29 02:21:41;;;;;;;7.85;5.63;;;;;;;;;;6296465;28;20062;-71
2023/09/29 02:24:44;;;;;;;16.40;7.20;;;;;;;;;;6296440;28;20047;-70
2023/09/29 02:27:47;;;;;;;6.85;3.90;;;;;;;;;;6281609;28;20039;-71
2023/09/29 02:30:49;;;;;;;8.18;6.05;;;;;;;;;;6272172;28;20046;-71
2023/09/29 02:33:52;;;;;;;8.82;5.80;;;;;;;;;;6240011;28;20744;-71
2023/09/29 02:36:54;;;;;;;9.00;5.88;;;;;;;;;;6290565;28;20041;-72
2023/09/29 02:39:56;;;;;;;7.72;6.25;;;;;;;;;;6287928;28;20035;-71
2023/09/29 02:42:59;;;;;;;5.90;4.82;;;;;;;;;;6320295;28;20154;-70
2023/09/29 02:46:01;;;;;;;9.75;6.32;;;;;;;;;;6305372;28;20045;-70
2023/09/29 02:49:04;;;;;;;6.32;5.35;;;;;;;;;;6251127;28;20178;-71
2023/09/29 02:52:06;;;;;;;9.45;4.07;;;;;;;;;;6319715;28;20040;-72
2023/09/29 02:55:12;;;;;;;9.40;4.00;;;;;;;;;;6268914;28;20637;-72
2023/09/29 02:58:16;;;;;;;7.93;5.95;;;;;;;;;;6292412;28;20032;-72
2023/09/29 03:01:19;;;;;;;8.82;5.47;;;;;;;;;;6259432;28;20050;-71
2023/09/29 03:04:21;;;;;;;10.43;6.68;;;;;;;;;;6227963;28;20046;-71
2023/09/29 03:07:25;;;;;;;9.20;6.53;;;;;;;;;;6270998;28;20041;-72
2023/09/29 03:10:28;;;;;;;7.88;5.57;;;;;;;;;;6277401;28;20047;-73
2023/09/29 03:13:30;;;;;;;8.57;5.57;;;;;;;;;;6310159;28;20042;-72
2023/09/29 03:16:35;;;;;;;9.07;6.28;;;;;;;;;;6335414;28;20039;-72
2023/09/29 03:19:37;;;;;;;12.35;6.00;;;;;;;;;;6289658;28;20039;-72
2023/09/29 03:22:41;;;;;;;6.18;5.32;;;;;;;;;;6303260;28;20043;-72
2023/09/29 03:25:43;;;;;;;6.85;3.38;;;;;;;;;;6297803;28;20054;-72
2023/09/29 03:28:45;;;;;;;11.98;6.22;;;;;;;;;;6297886;28;20516;-72
2023/09/29 03:31:47;;;;;;;8.93;7.78;;;;;;;;;;6218984;28;20060;-72
2023/09/29 03:34:49;;;;;;;13.77;6.57;;;;;;;;;;6293920;28;20043;-72
2023/09/29 03:37:52;;;;;;;6.90;3.97;;;;;;;;;;6268440;28;20571;-73
2023/09/29 03:40:56;;;;;;;8.93;6.35;;;;;;;;;;6266753;28;20047;-73
2023/09/29 03:43:58;;;;;;;10.45;4.45;;;;;;;;;;6279122;28;20058;-72
2023/09/29 03:47:00;;;;;;;8.52;5.43;;;;;;;;;;6262703;28;20483;-71
2023/09/29 03:50:07;;;;;;;7.63;5.80;;;;;;;;;;6260603;28;20046;-72
2023/09/29 03:53:10;;;;;;;6.57;3.13;;;;;;;;;;6321895;28;20857;-71
2023/09/29 03:56:11;;;;;;;7.65;4.15;;;;;;;;;;6271800;28;20694;-72
2023/09/29 03:59:14;;;;;;;9.77;7.93;;;;;;;;;;6256555;28;20056;-72
2023/09/29 04:02:17;;;;;;;12.70;5.97;;;;;;;;;;6216238;28;20048;-72
2023/09/29 04:05:19;;;;;;;15.80;6.88;;;;;;;;;;6256107;28;20056;-71
2023/09/29 04:08:21;;;;;;;7.22;5.65;;;;;;;;;;6285359;28;20133;-71
2023/09/29 04:11:24;;;;;;;8.50;5.93;;;;;;;;;;6250195;28;20047;-71
2023/09/29 04:14:26;;;;;;;14.20;6.53;;;;;;;;;;6277755;28;20516;-71
2023/09/29 04:17:35;;;;;;;11.45;7.82;;;;;;;;;;6319212;28;20051;-71
2023/09/29 04:20:41;;;;;;;11.50;6.93;;;;;;;;;;6264858;28;20040;-72
2023/09/29 04:23:44;;;;;;;11.15;6.93;;;;;;;;;;6261820;28;20877;-73
2023/09/29 04:26:46;;;;;;;11.18;6.40;;;;;;;;;;6230543;28;20436;-72
2023/09/29 04:29:48;;;;;;;10.35;7.40;;;;;;;;;;6277550;28;20043;-71
2023/09/29 04:32:55;;;;;;;8.93;8.02;;;;;;;;;;6231745;28;20045;-72
2023/09/29 04:35:57;;;;;;;9.25;7.00;;;;;;;;;;6263401;28;20050;-72
2023/09/29 04:38:59;;;;;;;10.02;7.82;;;;;;;;;;6288370;28;20069;-70
2023/09/29 04:42:07;;;;;;;11.85;7.05;;;;;;;;;;6257950;28;20617;-73
2023/09/29 04:45:09;;;;;;;11.88;6.55;;;;;;;;;;6308814;28;20126;-73
2023/09/29 04:48:11;;;;;;;17.35;6.80;;;;;;;;;;6222604;28;20049;-73
2023/09/29 04:51:13;;;;;;;9.27;4.20;;;;;;;;;;6263399;28;20440;-73
2023/09/29 04:54:15;;;;;;;14.77;6.53;;;;;;;;;;6287647;28;20098;-73
2023/09/29 04:57:19;;;;;;;11.93;6.60;;;;;;;;;;6279655;28;20038;-73
2023/09/29 05:00:22;;;;;;;15.88;7.32;;;;;;;;;;6261221;28;20049;-74
2023/09/29 05:03:25;;;;;;;8.10;6.40;;;;;;;;;;6244796;28;20696;-74
2023/09/29 05:06:33;;;;;;;13.07;7.05;;;;;;;;;;6315116;28;20031;-74
2023/09/29 05:09:35;;;;;;;12.73;7.65;;;;;;;;;;6295564;28;20047;-73
2023/09/29 05:12:37;;;;;;;18.67;9.65;;;;;;;;;;6289894;28;20076;-73
2023/09/29 05:15:40;;;;;;;16.10;8.45;;;;;;;;;;6288403;28;20539;-74
2023/09/29 05:18:44;;;;;;;16.90;8.48;;;;;;;;;;6254906;28;20045;-73
2023/09/29 05:21:47;;;;;;;10.45;7.80;;;;;;;;;;6246923;28;20060;-74
2023/09/29 05:24:49;;;;;;;12.32;6.55;;;;;;;;;;6267223;28;20079;-73
2023/09/29 05:27:51;;;;;;;10.70;3.67;;;;;;;;;;6306653;28;20713;-73
2023/09/29 05:30:54;;;;;;;12.32;4.32;;;;;;;;;;6275294;28;20441;-75
2023/09/29 05:33:57;;;;;;;11.63;7.22;;;;;;;;;;6272100;28;20053;-73
2023/09/29 05:36:59;;;;;;;12.43;6.82;;;;;;;;;;6233996;28;20050;-74
2023/09/29 05:40:03;;;;;;;11.68;6.43;;;;;;;;;;6241433;28;20048;-74
2023/09/29 05:43:09;;;;;;;12.48;8.15;;;;;;;;;;6257855;28;20126;-74
2023/09/29 05:46:15;;;;;;;12.80;4.75;;;;;;;;;;6256362;28;20068;-75
2023/09/29 05:49:17;;;;;;;11.35;6.75;;;;;;;;;;6274521;28;20072;-76
2023/09/29 05:52:21;;;;;;;9.63;5.55;;;;;;;;;;6321570;28;20180;-79
2023/09/29 05:55:24;;;;;;;8.20;5.97;;;;;;;;;;6262155;28;20455;-76
2023/09/29 05:58:26;;;;;;;10.60;5.50;;;;;;;;;;6215684;28;20425;-75
2023/09/29 06:01:30;;;;;;;8.20;5.60;;;;;;;;;;6262528;28;20099;-76
2023/09/29 06:04:34;;;;;;;10.52;7.22;;;;;;;;;;6262982;28;20454;-76
2023/09/29 06:07:37;;;;;;;11.07;7.00;;;;;;;;;;6276367;28;20047;-77
2023/09/29 06:10:39;;;;;;;11.77;5.32;;;;;;;;;;6266038;28;20432;-73
2023/09/29 06:13:44;;;;;;;12.63;5.43;;;;;;;;;;6289208;28;20034;-77
2023/09/29 06:16:46;;;;;;;11.30;7.47;;;;;;;;;;6319660;28;20036;-77
2023/09/29 06:19:49;;;;;;;9.68;6.47;;;;;;;;;;6270324;28;20130;-77
2023/09/29 06:22:51;;;;;;;9.35;6.15;;;;;;;;;;6292681;28;20085;-76
2023/09/29 06:25:58;;;;;;;13.30;3.95;;;;;;;;;;6319902;28;20102;-77
2023/09/29 06:29:02;;;;;;;10.65;7.63;;;;;;;;;;6219366;28;20038;-76
2023/09/29 06:32:05;;;;;;;10.27;5.70;;;;;;;;;;6283385;28;20043;-77
2023/09/29 06:35:10;;;;;;;8.68;6.82;;;;;;;;;;6256580;28;20052;-77
2023/09/29 06:38:15;;;;;;;11.88;4.40;;;;;;;;;;6301176;28;20038;-76
2023/09/29 06:41:17;;;;;;;6.47;4.35;;;;;;;;;;6303954;28;20054;-77
2023/09/29 06:44:20;;;;;;;13.45;4.35;;;;;;;;;;6278115;28;20272;-76
2023/09/29 06:47:22;;;;;;;7.53;4.35;;;;;;;;;;6308413;28;20449;-78
2023/09/29 06:50:24;;;;;;;8.10;3.88;;;;;;;;;;6304832;28;20671;-77
2023/09/29 06:53:31;;;;;;;7.00;3.38;;;;;;;;;;6275487;28;20053;-77
2023/09/29 06:56:33;;;;;;;8.40;5.13;;;;;;;;;;6305489;28;20039;-77
2023/09/29 06:59:36;;;;;;;13.88;5.60;;;;;;;;;;6250092;28;20511;-76
2023/09/29 07:02:38;;;;;;;7.90;3.33;;;;;;;;;;6227002;28;20046;-77
2023/09/29 07:05:42;;;;;;;7.50;5.55;;;;;;;;;;6249779;28;20046;-76
2023/09/29 07:08:45;;;;;;;10.55;4.15;;;;;;;;;;6306205;28;20817;-76
2023/09/29 07:11:47;;;;;;;8.05;5.82;;;;;;;;;;6289166;28;20442;-76
2023/09/29 07:14:51;;;;;;;14.52;7.10;;;;;;;;;;6307701;28;20043;-76
2023/09/29 07:17:53;;;;;;;9.25;5.95;;;;;;;;;;6274333;28;20476;-76
2023/09/29 07:20:58;;;;;;;14.75;5.43;;;;;;;;;;6260775;28;20042;-76
2023/09/29 07:24:01;;;;;;;10.13;3.90;;;;;;;;;;6309034;28;20084;-77
2023/09/29 07:27:04;;;;;;;9.73;3.33;;;;;;;;;;6290514;28;20488;-77
2023/09/29 07:30:08;;;;;;;10.75;4.82;;;;;;;;;;6261162;28;20144;-76
2023/09/29 07:33:11;;;;;;;9.88;4.47;;;;;;;;;;6240727;28;20144;-77
2023/09/29 07:36:14;;;;;;;12.45;3.75;;;;;;;;;;6257438;28;20061;-76
2023/09/29 07:39:17;;;;;;;10.70;3.25;;;;;;;;;;6261490;28;20134;-77
2023/09/29 07:42:20;;;;;;;14.38;3.15;;;;;;;;;;6272292;28;20046;-78
2023/09/29 07:45:27;;;;;;;10.88;6.03;;;;;;;;;;6276704;28;20032;-79
2023/09/29 07:48:29;;;;;;;20.50;4.60;;;;;;;;;;6275514;28;20084;-79
2023/09/29 07:51:32;;;;;;;15.40;3.15;;;;;;;;;;6280093;28;20051;-78
2023/09/29 07:54:35;;;;;;;12.23;3.63;;;;;;;;;;6279953;28;20096;-79
2023/09/29 07:57:38;;;;;;;9.80;2.72;;;;;;;;;;6321912;28;20125;-78
2023/09/29 08:00:40;;;;;;;10.98;3.50;;;;;;;;;;6296355;28;20036;-79
2023/09/29 08:03:44;;;;;;;6.82;2.47;;;;;;;;;;6265018;28;20053;-79
2023/09/29 08:06:46;;;;;;;8.40;4.85;;;;;;;;;;6229057;28;20738;-79
2023/09/29 08:09:49;;;;;;;11.02;3.78;;;;;;;;;;6287062;28;20077;-79
2023/09/29 08:12:52;;;;;;;8.18;2.63;;;;;;;;;;6274243;28;20058;-78
2023/09/29 08:15:54;;;;;;;16.90;6.45;;;;;;;;;;6303167;28;20040;-80
2023/09/29 08:18:57;;;;;;;7.68;5.03;;;;;;;;;;6245421;28;20053;-79
2023/09/29 08:22:00;;;;;;;20.95;3.78;;;;;;;;;;6303204;28;20133;-80
2023/09/29 08:25:07;;;;;;;21.75;5.32;;;;;;;;;;6261141;28;20211;-79
2023/09/29 08:28:10;;;;;;;10.05;3.00;;;;;;;;;;6298469;28;20117;-79
2023/09/29 08:31:15;;;;;;;9.40;2.65;;;;;;;;;;6314406;28;20039;-79
2023/09/29 08:34:19;;;;;;;5.63;2.53;;;;;;;;;;6279295;28;20046;-79
2023/09/29 08:37:22;;;;;;;13.25;3.50;;;;;;;;;;6308355;28;20057;-79
2023/09/29 08:40:25;;;;;;;11.73;3.45;;;;;;;;;;6264923;28;20050;-80
2023/09/29 08:43:28;;;;;;;13.70;3.08;;;;;;;;;;6279573;28;20060;-79
2023/09/29 08:46:33;;;;;;;6.60;3.42;;;;;;;;;;6270328;28;20054;-79
2023/09/29 08:49:36;;;;;;;10.40;3.95;;;;;;;;;;6279402;28;20038;-80
2023/09/29 08:52:51;;;;;;;13.73;5.10;;;;;;;;;;6336461;28;20051;-78
2023/09/29 08:55:56;;;;;;;9.07;3.63;;;;;;;;;;6243427;28;20042;-80
2023/09/29 08:59:00;;;;;;;7.68;4.20;;;;;;;;;;6278698;28;20071;-77
2023/09/29 09:02:05;;;;;;;11.50;5.15;;;;;;;;;;6298630;28;20047;-78
2023/09/29 09:05:14;;;;;;;10.88;5.63;;;;;;;;;;6268069;28;20074;-79
2023/09/29 09:08:19;;;;;;;9.30;2.63;;;;;;;;;;6285779;28;20630;-78
2023/09/29 09:11:21;;;;;;;7.28;3.58;;;;;;;;;;6290131;28;20108;-78
2023/09/29 09:14:27;;;;;;;14.55;4.35;;;;;;;;;;6285006;28;20048;-79
2023/09/29 09:17:34;;;;;;;7.60;4.63;;;;;;;;;;6249605;28;20053;-78
2023/09/29 09:20:51;;;;;;;6.25;4.32;;;;;;;;;;6280237;28;20046;-78
2023/09/29 09:23:56;;;;;;;10.02;4.88;;;;;;;;;;6281629;28;20049;-78
2023/09/29 09:27:02;;;;;;;11.18;3.75;;;;;;;;;;6252323;28;20076;-78
2023/09/29 09:30:07;;;;;;;12.95;4.65;;;;;;;;;;6246277;28;20154;-79
2023/09/29 09:33:21;;;;;;;6.85;3.55;;;;;;;;;;6310987;28;20044;-80
2023/09/29 09:36:24;;;;;;;10.57;4.15;;;;;;;;;;6249199;28;20045;-79
2023/09/29 09:39:28;;;;;;;7.55;5.65;;;;;;;;;;6275897;28;20038;-79
2023/09/29 09:42:31;;;;;;;7.03;3.30;;;;;;;;;;6265117;28;20440;-75
2023/09/29 09:45:42;;;;;;;5.55;3.38;;;;;;;;;;6244903;28;20070;-74
2023/09/29 09:48:55;;;;;;;10.23;4.22;;;;;;;;;;6269940;28;20126;-74
2023/09/29 09:52:04;;;;;;;6.00;3.90;;;;;;;;;;6278439;28;20079;-74
2023/09/29 09:55:12;;;;;;;13.60;4.65;;;;;;;;;;6290672;28;20055;-74
2023/09/29 09:58:15;;;;;;;6.95;3.97;;;;;;;;;;6297429;28;20045;-74
2023/09/29 10:01:17;;;;;;;6.28;4.30;;;;;;;;;;6269977;28;20056;-75
2023/09/29 10:04:20;;;;;;;13.18;4.43;;;;;;;;;;6304480;28;20054;-77
2023/09/29 10:07:22;;;;;;;15.45;3.90;;;;;;;;;;6238086;28;20054;-75
2023/09/29 10:10:33;;;;;;;13.38;2.63;;;;;;;;;;6213604;28;20567;-75
2023/09/29 10:13:39;;;;;;;10.55;3.25;;;;;;;;;;6239313;28;20424;-76
2023/09/29 10:16:42;;;;;;;10.93;3.95;;;;;;;;;;6241562;28;20050;-75
2023/09/29 10:19:48;;;;;;;8.48;3.58;;;;;;;;;;6274794;28;20936;-76
2023/09/29 10:22:54;;;;;;;8.57;5.07;;;;;;;;;;6274504;28;20044;-77
2023/09/29 10:26:02;;;;;;;8.35;4.07;;;;;;;;;;6277244;28;20192;-75
2023/09/29 10:29:08;;;;;;;10.13;4.32;;;;;;;;;;6286288;28;20042;-75
2023/09/29 10:32:14;;;;;;;6.63;4.13;;;;;;;;;;6239936;28;20841;-74
2023/09/29 10:35:20;;;;;;;16.33;4.38;;;;;;;;;;6244906;28;20149;-75
2023/09/29 10:38:23;;;;;;;9.57;3.78;;;;;;;;;;6278388;28;20057;-73
2023/09/29 10:41:28;;;;;;;8.80;4.50;;;;;;;;;;6253568;28;20057;-73
2023/09/29 10:44:52;;;;;;;7.13;4.00;;;;;;;;;;6261718;28;20084;-72
2023/09/29 10:48:16;;;;;;;9.63;3.40;;;;;;;;;;6294476;28;20361;-65
2023/09/29 10:51:22;;;;;;;;;;;;;;;;;;6208666;28;20061;-65
2023/09/29 10:54:24;;;;;;;7.13;4.43;;;;;;;;;;6236037;28;19928;-65
2023/09/29 10:57:28;;;;;;;8.85;5.20;;;;;;;;;;6225508;28;20084;-65
2023/09/29 11:00:43;;;;;;;7.28;4.65;;;;;;;;;;6241940;28;20050;-65
2023/09/29 11:03:45;;;;;;;13.60;4.07;;;;;;;;;;6248769;28;20050;-65
2023/09/29 11:06:49;;;;;;;8.52;4.22;;;;;;;;;;6222215;28;20733;-66
2023/09/29 11:09:52;;;;;;;10.65;4.45;;;;;;;;;;6218579;28;20743;-65
2023/09/29 11:12:54;;;;;;;7.90;4.20;;;;;;;;;;6248563;28;20049;-65
2023/09/29 11:15:58;;;;;;;9.93;4.10;;;;;;;;;;6234132;28;20052;-65
2023/09/29 11:19:11;;;;;;;6.03;3.95;;;;;;;;;;6250340;28;20499;-64
2023/09/29 11:22:18;;;;;;;5.13;2.83;;;;;;;;;;6232656;28;20722;-65
2023/09/29 11:25:20;;;;;;;7.57;4.13;;;;;;;;;;6233542;28;20047;-66
2023/09/29 11:28:22;;;;;;;8.88;3.55;;;;;;;;;;6238296;28;20081;-65
2023/09/29 11:31:24;;;;;;;7.50;3.83;;;;;;;;;;6235305;28;20047;-65
2023/09/29 11:34:29;;;;;;;10.18;4.07;;;;;;;;;;6266238;28;20464;-68
2023/09/29 11:37:32;;;;;;;16.65;4.25;;;;;;;;;;6242473;28;20180;-68
2023/09/29 11:40:34;;;;;;;7.50;3.45;;;;;;;;;;6211157;28;20053;-68
2023/09/29 11:43:39;;;;;;;9.30;3.83;;;;;;;;;;6249583;28;20042;-68
2023/09/29 11:46:43;;;;;;;6.93;3.72;;;;;;;;;;6257481;28;20048;-68
2023/09/29 11:49:46;;;;;;;8.32;4.38;;;;;;;;;;6249174;28;20050;-68
2023/09/29 11:52:48;;;;;;;9.75;4.57;;;;;;;;;;6272626;28;20050;-68
2023/09/29 11:55:50;;;;;;;6.60;2.83;;;;;;;;;;6246902;28;20040;-69
2023/09/29 11:58:53;;;;;;;6.93;3.78;;;;;;;;;;6303437;28;20050;-68
2023/09/29 12:01:55;;;;;;;9.20;4.05;;;;;;;;;;6315668;28;20047;-68
2023/09/29 12:04:57;;;;;;;9.98;3.60;;;;;;;;;;6229858;28;20056;-68
2023/09/29 12:08:02;;;;;;;8.27;3.90;;;;;;;;;;6218267;28;20048;-69
2023/09/29 12:11:07;;;;;;;;;;;;;;;;;;6309263;28;20055;-68
2023/09/29 12:14:09;;;;;;;7.45;3.58;;;;;;;;;;6305712;28;20040;-68
2023/09/29 12:17:12;;;;;;;7.88;2.88;;;;;;;;;;6319448;28;20561;-68
2023/09/29 12:20:14;;;;;;;7.88;4.55;;;;;;;;;;6236933;28;20052;-68
2023/09/29 12:23:16;;;;;;;9.55;2.97;;;;;;;;;;6289585;28;20198;-69
2023/09/29 12:26:19;;;;;;;8.82;3.42;;;;;;;;;;6251858;28;20048;-69
2023/09/29 12:29:24;;;;;;;8.35;2.55;;;;;;;;;;6247994;28;20054;-69
2023/09/29 12:32:26;;;;;;;12.15;3.25;;;;;;;;;;6298277;28;20529;-68
2023/09/29 12:35:28;;;;;;;8.57;2.95;;;;;;;;;;6211338;28;20054;-70
2023/09/29 12:38:30;;;;;;;9.65;3.33;;;;;;;;;;6241033;28;20057;-71
2023/09/29 12:41:32;;;;;;;5.32;3.83;;;;;;;;;;6307952;28;20126;-69
2023/09/29 12:44:35;;;;;;;8.55;2.80;;;;;;;;;;6280677;28;20062;-69
2023/09/29 12:47:37;;;;;;;7.38;3.15;;;;;;;;;;6275346;28;20080;-69
2023/09/29 12:50:40;;;;;;;7.75;2.70;;;;;;;;;;6262982;28;20050;-68
2023/09/29 12:53:42;;;;;;;8.63;3.22;;;;;;;;;;6252738;28;20049;-68
2023/09/29 12:56:44;;;;;;;8.48;3.05;;;;;;;;;;6285390;28;20057;-67
2023/09/29 12:59:52;;;;;;;8.13;3.25;;;;;;;;;;6235161;28;20053;-68
2023/09/29 13:02:55;;;;;;;9.80;3.70;;;;;;;;;;6268780;28;20055;-65
2023/09/29 13:06:00;;;;;;;7.97;3.33;;;;;;;;;;6273123;28;20043;-65
2023/09/29 13:09:03;;;;;;;7.63;3.22;;;;;;;;;;6262047;28;20153;-65
2023/09/29 13:12:05;;;;;;;5.60;2.13;;;;;;;;;;6303137;28;20496;-66
2023/09/29 13:15:21;;;;;;;11.48;3.15;;;;;;;;;;6252275;28;20083;-65
2023/09/29 13:18:27;;;;;;;9.18;2.50;;;;;;;;;;6297691;28;20089;-66
2023/09/29 13:21:33;;;;;;;6.90;3.13;;;;;;;;;;6221618;28;20042;-65
2023/09/29 13:24:36;;;;;;;6.60;3.70;;;;;;;;;;6237771;28;20065;-65
2023/09/29 13:27:38;;;;;;;4.97;2.83;;;;;;;;;;6313913;28;20087;-65
2023/09/29 13:30:40;;;;;;;9.15;3.05;;;;;;;;;;6244332;28;20050;-66
2023/09/29 13:33:55;;;;;;;6.88;2.58;;;;;;;;;;6236868;28;20060;-66
2023/09/29 13:36:59;;;;;;;6.97;3.20;;;;;;;;;;6270558;28;20043;-65
2023/09/29 13:40:05;;;;;;;6.82;3.90;;;;;;;;;;6237697;28;20087;-66
2023/09/29 13:43:08;;;;;;;7.60;3.33;;;;;;;;;;6199136;28;20061;-65
2023/09/29 13:46:11;;;;;;;11.30;3.67;;;;;;;;;;6265291;28;20185;-66
2023/09/29 13:49:14;;;;;;;9.80;3.47;;;;;;;;;;6293928;28;20063;-66
2023/09/29 13:52:19;;;;;;;6.43;1.95;;;;;;;;;;6305020;28;20365;-66
2023/09/29 13:55:21;;;;;;;7.57;4.32;;;;;;;;;;6293587;28;20468;-65
2023/09/29 13:58:24;;;;;;;6.88;2.92;;;;;;;;;;6287175;28;20065;-66
2023/09/29 14:01:27;;;;;;;7.30;3.53;;;;;;;;;;6317114;28;20039;-69
2023/09/29 14:04:29;;;;;;;8.13;3.33;;;;;;;;;;6326070;28;20221;-75
2023/09/29 14:07:33;;;;;;;12.18;3.55;;;;;;;;;;6311378;28;20621;-75
2023/09/29 14:10:36;;;;;;;13.63;4.93;;;;;;;;;;6219328;28;20053;-71
2023/09/29 14:13:39;;;;;;;7.53;3.05;;;;;;;;;;6219981;28;20049;-70
2023/09/29 14:16:41;;;;;;;7.07;3.20;;;;;;;;;;6242666;28;20065;-70
2023/09/29 14:19:43;;;;;;;10.02;4.55;;;;;;;;;;6290345;28;20571;-70
2023/09/29 14:22:45;;;;;;;7.30;3.95;;;;;;;;;;6287186;28;20043;-70
2023/09/29 14:25:47;;;;;;;8.38;3.47;;;;;;;;;;6214016;28;20135;-69
2023/09/29 14:28:51;;;;;;;6.63;3.38;;;;;;;;;;6296423;28;20035;-70
2023/09/29 14:31:53;;;;;;;11.30;2.95;;;;;;;;;;6275125;28;20445;-70
2023/09/29 14:34:55;;;;;;;8.88;3.80;;;;;;;;;;6234688;28;20053;-71
2023/09/29 14:37:58;;;;;;;8.32;4.72;;;;;;;;;;6233026;28;20044;-71
2023/09/29 14:41:00;;;;;;;12.05;5.43;;;;;;;;;;6279511;28;20049;-71
2023/09/29 14:44:04;;;;;;;8.77;4.60;;;;;;;;;;6271257;28;20073;-71
2023/09/29 14:47:06;;;;;;;7.85;4.00;;;;;;;;;;6278200;28;20061;-70
2023/09/29 14:50:08;;;;;;;11.43;5.07;;;;;;;;;;6228774;28;20041;-70
2023/09/29 14:53:14;;;;;;;10.50;3.97;;;;;;;;;;6241740;28;20046;-71
2023/09/29 14:56:16;;;;;;;8.90;4.07;;;;;;;;;;6289309;28;20140;-71
2023/09/29 14:59:19;;;;;;;9.60;4.32;;;;;;;;;;6280283;28;20051;-71
2023/09/29 15:02:21;;;;;;;8.95;4.55;;;;;;;;;;6243207;28;20047;-71
2023/09/29 15:05:23;;;;;;;11.73;4.20;;;;;;;;;;6237250;28;20057;-70
2023/09/29 15:08:29;;;;;;;9.65;3.80;;;;;;;;;;6249685;28;20039;-70
2023/09/29 15:11:31;;;;;;;8.10;3.53;;;;;;;;;;6228716;28;20721;-70
2023/09/29 15:14:33;;;;;;;12.32;3.35;;;;;;;;;;6238286;28;20057;-70
2023/09/29 15:17:35;;;;;;;9.88;4.35;;;;;;;;;;6258896;28;20138;-70
2023/09/29 15:20:40;;;;;;;8.18;3.58;;;;;;;;;;6233490;28;20084;-71
2023/09/29 15:23:42;;;;;;;8.95;5.03;;;;;;;;;;6246487;28;20058;-70
2023/09/29 15:26:44;;;;;;;8.25;4.00;;;;;;;;;;6243577;28;20096;-71
2023/09/29 15:29:46;;;;;;;6.95;4.30;;;;;;;;;;6219206;28;20056;-70
2023/09/29 15:32:48;;;;;;;7.35;4.50;;;;;;;;;;6239518;28;20532;-75
2023/09/29 15:36:00;;;;;;;10.98;3.95;;;;;;;;;;6264011;28;20079;-76
2023/09/29 15:39:09;;;;;;;13.50;5.30;;;;;;;;;;6299908;28;20088;-76
2023/09/29 15:42:11;;;;;;;15.73;4.78;;;;;;;;;;6270798;28;20058;-75
2023/09/29 15:45:13;;;;;;;11.85;5.03;;;;;;;;;;6235694;28;20045;-76
2023/09/29 15:48:16;;;;;;;10.30;5.05;;;;;;;;;;6264530;28;20053;-75
2023/09/29 15:51:19;;;;;;;9.68;4.55;;;;;;;;;;6276331;28;20157;-76
2023/09/29 15:54:23;;;;;;;12.40;4.68;;;;;;;;;;6238679;28;20267;-75
2023/09/29 15:57:25;;;;;;;10.63;4.88;;;;;;;;;;6247324;28;20201;-75
2023/09/29 16:00:29;;;;;;;11.60;5.53;;;;;;;;;;6282772;28;20030;-76
2023/09/29 16:03:31;;;;;;;11.60;5.80;;;;;;;;;;6248802;28;20905;-74
2023/09/29 16:06:34;;;;;;;10.95;4.97;;;;;;;;;;6230954;28;20049;-74
2023/09/29 16:09:36;;;;;;;14.77;5.28;;;;;;;;;;6253894;28;20129;-74
2023/09/29 16:12:38;;;;;;;12.32;4.40;;;;;;;;;;6293181;28;20100;-74
2023/09/29 16:15:41;;;;;;;9.52;5.15;;;;;;;;;;6306862;28;20055;-74
2023/09/29 16:18:43;;;;;;;15.85;4.63;;;;;;;;;;6276399;28;20057;-74
2023/09/29 16:21:59;;;;;;;10.90;6.45;;;;;;;;;;6278012;28;20050;-73
2023/09/29 16:25:04;;;;;;;11.05;6.32;;;;;;;;;;6282142;28;20120;-75
2023/09/29 16:28:07;;;;;;;10.18;6.38;;;;;;;;;;6301813;28;20048;-74
2023/09/29 16:31:13;;;;;;;11.40;4.82;;;;;;;;;;6265401;28;20090;-74
2023/09/29 16:34:16;;;;;;;7.60;6.00;;;;;;;;;;6282437;28;20080;-74
2023/09/29 16:37:18;;;;;;;15.85;6.53;;;;;;;;;;6276100;28;20053;-74
2023/09/29 16:40:20;;;;;;;11.23;4.97;;;;;;;;;;6291933;28;20045;-75
2023/09/29 16:43:29;;;;;;;9.48;5.03;;;;;;;;;;6273577;28;20042;-74
2023/09/29 16:46:31;;;;;;;9.35;5.75;;;;;;;;;;6243074;28;20075;-74
2023/09/29 16:49:36;;;;;;;9.55;5.63;;;;;;;;;;6318049;28;20131;-74
2023/09/29 16:52:38;;;;;;;9.85;3.60;;;;;;;;;;6303320;28;20040;-74
2023/09/29 16:55:40;;;;;;;11.95;6.15;;;;;;;;;;6295325;28;20047;-74
2023/09/29 16:58:42;;;;;;;9.80;6.05;;;;;;;;;;6279666;28;20123;-74
2023/09/29 17:01:44;;;;;;;7.53;4.20;;;;;;;;;;6230893;28;20122;-74
2023/09/29 17:04:49;;;;;;;8.38;4.07;;;;;;;;;;6298050;28;20044;-74
2023/09/29 17:07:53;;;;;;;8.60;7.38;;;;;;;;;;6279412;28;20049;-71
2023/09/29 17:10:56;;;;;;;12.90;5.50;;;;;;;;;;6288644;28;20031;-71
2023/09/29 17:13:57;;;;;;;9.65;6.68;;;;;;;;;;6283143;28;20048;-71
2023/09/29 17:17:00;;;;;;;11.35;5.80;;;;;;;;;;6316237;28;20047;-71
2023/09/29 17:20:03;;;;;;;11.57;6.95;;;;;;;;;;6255097;28;20046;-71
2023/09/29 17:23:05;;;;;;;8.60;3.72;;;;;;;;;;6294308;28;20038;-71
2023/09/29 17:26:07;;;;;;;10.57;3.80;;;;;;;;;;6275106;28;20047;-72
2023/09/29 17:29:09;;;;;;;14.65;4.70;;;;;;;;;;6280840;28;20134;-71
2023/09/29 17:32:11;;;;;;;15.07;5.22;;;;;;;;;;6311084;28;20038;-74
2023/09/29 17:35:13;;;;;;;11.60;4.72;;;;;;;;;;6217611;28;20050;-72
2023/09/29 17:38:15;;;;;;;13.13;4.30;;;;;;;;;;6208488;28;20053;-72
2023/09/29 17:41:18;;;;;;;10.73;4.85;;;;;;;;;;6260530;28;20044;-71
2023/09/29 17:44:21;;;;;;;9.70;4.35;;;;;;;;;;6239668;28;20083;-76
2023/09/29 17:47:24;;;;;;;13.85;8.40;;;;;;;;;;6233201;28;20129;-75
2023/09/29 17:50:27;;;;;;;13.90;4.25;;;;;;;;;;6261626;28;20049;-75
2023/09/29 17:53:29;;;;;;;7.97;4.10;;;;;;;;;;6287861;28;20065;-75
2023/09/29 17:56:31;;;;;;;12.20;9.75;;;;;;;;;;6238642;28;20050;-75
2023/09/29 17:59:34;;;;;;;10.93;6.43;;;;;;;;;;6276591;28;20173;-75
2023/09/29 18:02:39;;;;;;;16.08;7.68;;;;;;;;;;6284288;28;20058;-76
2023/09/29 18:05:41;;;;;;;16.33;4.28;;;;;;;;;;6292843;28;20131;-77
2023/09/29 18:08:44;;;;;;;9.77;6.82;;;;;;;;;;6279856;28;20049;-74
2023/09/29 18:11:46;;;;;;;11.13;3.60;;;;;;;;;;6285827;28;20038;-77
2023/09/29 18:14:49;;;;;;;12.02;6.68;;;;;;;;;;6303942;28;20090;-74